Time;durP1;ratioP1;P1;durP2;ratioP2;P2;SDS_P1;SDS_P2;PMS_P1;PMS_P2;Temp;Humidity;BMP_temperature;BMP_pressure;BME280_temperature;BME280_humidity;BME280_pressure;Samples;Min_cycle;Max_cycle;Signal;HPM_P1;HPM_P2
2022/03/14 00:01:08;;;;;;;;;;;7.90;73.40;;;7.35;46.79;97231.78;4993148;28;19928;-39
2022/03/14 00:03:42;;;;;;;;;;;7.90;74.70;;;7.41;46.79;97225.50;4988810;28;20437;-37
2022/03/14 00:06:12;;;;;;;;;;;7.90;74.90;;;7.44;46.93;97233.28;4996055;28;19971;-34
2022/03/14 00:08:41;;;;;;;;;;;7.90;74.90;;;7.44;46.81;97234.16;4964044;28;19975;-37
2022/03/14 00:11:07;;;;;;;;;;;8.00;75.10;;;7.47;47.09;97240.25;4963932;28;19964;-39
2022/03/14 00:13:33;;;;;;;;;;;8.00;75.40;;;7.47;46.98;97248.97;4980616;28;19921;-36
2022/03/14 00:15:59;;;;;;;;;;;8.00;75.30;;;7.49;47.56;97256.78;4980775;28;21444;-38
2022/03/14 00:18:27;;;;;;;;;;;8.00;76.00;;;7.52;47.01;97270.69;4981941;28;19927;-38
2022/03/14 00:20:52;;;;;;;;;;;8.10;75.50;;;7.52;47.32;97281.19;4982737;28;19917;-36
2022/03/14 00:23:19;;;;;;;;;;;8.10;75.60;;;7.54;47.04;97294.28;4979438;28;19931;-37
2022/03/14 00:25:48;;;;;;;;;;;8.10;75.40;;;7.47;44.94;97314.56;4982472;28;19921;-38
2022/03/14 00:28:13;;;;;;;;;;;8.10;73.10;;;7.48;44.83;97318.88;4988333;28;19917;-36
2022/03/14 00:30:39;;;;;;;;;;;8.10;72.20;;;7.50;44.44;97324.09;4986988;28;20123;-36
2022/03/14 00:33:05;;;;;;;;;;;8.10;71.50;;;7.49;43.74;97332.91;4983131;28;20268;-38
2022/03/14 00:35:30;;;;;;;;;;;8.10;71.60;;;7.53;42.78;97332.75;4984819;28;20405;-34
2022/03/14 00:37:56;;;;;;;;;;;8.10;69.40;;;7.55;43.17;97335.34;4988681;28;20044;-38
2022/03/14 00:40:21;;;;;;;;;;;8.10;69.80;;;7.55;43.40;97337.97;4981238;28;20938;-36
2022/03/14 00:42:48;;;;;;;;;;;8.10;70.20;;;7.55;43.78;97330.94;4977583;28;19917;-37
2022/03/14 00:45:14;;;;;;;;;;;8.10;70.40;;;7.63;44.05;97333.41;4977840;28;20071;-38
2022/03/14 00:47:40;;;;;;;;;;;8.20;71.00;;;7.68;44.57;97336.78;4974571;28;19920;-36
2022/03/14 00:50:07;;;;;;;;;;;8.20;71.70;;;7.72;44.91;97332.31;4975774;28;20618;-35
2022/03/14 00:52:32;;;;;;;;;;;8.20;72.60;;;7.75;45.85;97343.59;4980769;28;20340;-36
2022/03/14 00:54:58;;;;;;;;;;;8.30;73.50;;;7.77;45.60;97359.25;4980848;28;19917;-33
2022/03/14 00:57:24;;;;;;;;;;;8.30;73.30;;;7.80;44.17;97357.41;4977743;28;19979;-36
2022/03/14 00:59:50;;;;;;;;;;;8.30;73.20;;;7.87;44.99;97371.25;4980592;28;19921;-34
2022/03/14 01:02:16;;;;;;;;;;;8.40;72.60;;;7.94;45.32;97385.94;4985989;28;19921;-35
2022/03/14 01:04:41;;;;;;;;;;;8.40;73.00;;;7.99;44.97;97394.56;4985971;28;19923;-36
2022/03/14 01:07:07;;;;;;;;;;;8.50;72.70;;;8.15;45.25;97399.41;4985139;28;20015;-38
2022/03/14 01:09:33;;;;;;;;;;;8.60;73.50;;;8.33;45.87;97409.41;4968714;28;20698;-37
2022/03/14 01:11:59;;;;;;;;;;;8.70;74.80;;;8.47;45.67;97416.94;4984771;28;20329;-36
2022/03/14 01:14:25;;;;;;;;;;;8.90;74.50;;;8.51;47.77;97421.22;4978659;28;19979;-36
2022/03/14 01:16:51;;;;;;;;;;;8.90;75.90;;;8.54;50.39;97426.38;4982108;28;20429;-34
2022/03/14 01:19:18;;;;;;;;;;;9.00;78.40;;;8.64;51.94;97431.38;4979287;28;19925;-34
2022/03/14 01:21:43;;;;;;;;;;;9.10;80.90;;;8.53;52.96;97437.78;4977003;28;19987;-36
2022/03/14 01:24:09;;;;;;;;;;;9.10;82.10;;;8.49;54.07;97438.78;4980988;28;20387;-38
2022/03/14 01:26:35;;;;;;;;;;;9.00;83.10;;;8.40;58.66;97449.53;4977330;28;19928;-37
2022/03/14 01:29:04;;;;;;;;;;;8.90;86.40;;;8.40;62.46;97455.63;4979592;28;19978;-36
2022/03/14 01:31:30;;;;;;;;;;;8.90;90.00;;;8.17;62.55;97448.38;4985867;28;19922;-38
2022/03/14 01:33:56;;;;;;;;;;;8.80;90.10;;;8.21;71.53;97468.41;4979210;28;19925;-36
2022/03/14 01:36:22;;;;;;;;;;;8.80;92.20;;;8.28;72.38;97481.38;4979955;28;19921;-38
2022/03/14 01:38:47;;;;;;;;;;;8.80;93.10;;;8.20;73.96;97492.97;4985776;28;19921;-37
2022/03/14 01:41:17;;;;;;;;;;;8.70;93.20;;;8.11;76.96;97474.81;4981085;28;19928;-40
2022/03/14 01:43:43;;;;;;;;;;;8.70;94.60;;;8.32;78.56;97506.66;4977013;28;20016;-39
2022/03/14 01:46:08;;;;;;;;;;;8.80;95.40;;;8.33;79.88;97513.66;4960650;28;19921;-38
2022/03/14 01:48:34;;;;;;;;;;;8.80;96.00;;;8.28;79.99;97521.66;4983912;28;20132;-38
2022/03/14 01:51:00;;;;;;;;;;;8.80;96.10;;;8.29;80.57;97533.03;4980113;28;20330;-35
2022/03/14 01:53:26;;;;;;;;;;;8.80;96.50;;;8.43;85.01;97536.19;4977709;28;19932;-33
2022/03/14 01:55:52;;;;;;;;;;;8.80;98.20;;;8.43;85.79;97548.47;4977415;28;19925;-36
2022/03/14 01:58:21;;;;;;;;;;;8.80;98.90;;;8.50;86.27;97550.91;4979564;28;20051;-37
2022/03/14 02:00:47;;;;;;;;;;;8.90;99.70;;;8.43;88.58;97559.00;4980559;28;19925;-36
2022/03/14 02:03:12;;;;;;;;;;;8.90;99.90;;;8.39;88.59;97561.66;4977221;28;19975;-35
2022/03/14 02:05:38;;;;;;;;;;;8.90;99.90;;;8.39;90.17;97571.31;4989262;28;20354;-38
2022/03/14 02:08:05;;;;;;;;;;;8.80;99.90;;;8.34;90.76;97576.66;4987296;28;20398;-37
2022/03/14 02:10:31;;;;;;;;;;;8.90;99.90;;;8.34;90.79;97578.44;4986415;28;19945;-36
2022/03/14 02:12:56;;;;;;;;;;;8.80;99.90;;;8.30;91.12;97588.16;4988491;28;19917;-36
2022/03/14 02:15:22;;;;;;;;;;;8.80;99.90;;;8.29;90.49;97598.72;4982055;28;20665;-39
2022/03/14 02:17:48;;;;;;;;;;;8.80;99.90;;;8.25;92.42;97607.56;4979411;28;19924;-38
2022/03/14 02:20:13;;;;;;;;;;;8.80;99.90;;;8.20;93.47;97605.94;4976417;28;19960;-38
2022/03/14 02:22:39;;;;;;;;;;;8.70;99.90;;;8.17;93.43;97608.63;4958387;28;20639;-36
2022/03/14 02:25:09;;;;;;;;;;;8.70;99.90;;;8.15;94.14;97613.06;4978945;28;19917;-38
2022/03/14 02:27:36;;;;;;;;;;;8.70;99.90;;;8.13;94.66;97612.25;4977129;28;19921;-36
2022/03/14 02:30:03;;;;;;;;;;;8.60;99.90;;;8.07;94.80;97606.25;5001437;23;22233;-38
2022/03/14 02:32:28;;;;;;;;;;;8.60;99.90;;;8.13;94.83;97621.84;4977298;28;19983;-48
2022/03/14 02:34:54;;;;;;;;;;;8.60;99.90;;;8.13;95.03;97622.75;4973769;28;20247;-47
2022/03/14 02:37:19;;;;;;;;;;;8.60;99.90;;;8.11;95.13;97619.28;4976189;28;20039;-42
2022/03/14 02:39:47;;;;;;;;;;;8.60;99.90;;;8.14;95.39;97631.47;4974118;28;20637;-47
2022/03/14 02:42:13;;;;;;;;;;;8.60;99.90;;;8.13;95.45;97625.38;4960554;28;19980;-45
2022/03/14 02:44:41;;;;;;;;;;;8.60;99.90;;;8.14;95.79;97636.72;4958307;28;19922;-46
2022/03/14 02:47:08;;;;;;;;;;;8.60;99.90;;;8.14;96.25;97637.59;4958235;28;20194;-48
2022/03/14 02:49:34;;;;;;;;;;;8.70;99.90;;;8.16;95.75;97634.94;4942597;28;20467;-44
2022/03/14 02:52:00;;;;;;;;;;;8.70;99.90;;;8.18;95.80;97644.53;4957140;28;19917;-44
2022/03/14 02:54:26;;;;;;;;;;;8.70;99.90;;;8.19;96.03;97648.00;4958739;28;19913;-46
2022/03/14 02:56:52;;;;;;;;;;;8.60;99.90;;;8.15;97.59;97655.09;4959788;28;20603;-45
2022/03/14 02:59:20;;;;;;;;;;;8.70;99.90;;;8.12;97.77;97657.78;4959472;28;20037;-48
2022/03/14 03:01:46;;;;;;;;;;;8.60;99.90;;;8.10;99.62;97669.25;4957741;28;19932;-47
2022/03/14 03:04:11;;;;;;;;;;;8.60;99.90;;;8.06;100.00;97676.31;4959919;28;20053;-46
2022/03/14 03:06:38;;;;;;;;;;;8.50;99.90;;;7.97;100.00;97684.41;4957130;28;19961;-47
2022/03/14 03:09:03;;;;;;;;;;;8.50;99.90;;;7.93;100.00;97680.09;4960486;28;19979;-48
2022/03/14 03:11:30;;;;;;;;;;;8.40;99.90;;;7.85;100.00;97685.53;4942633;28;19921;-49
2022/03/14 03:13:56;;;;;;;;;;;8.40;99.90;;;7.79;100.00;97662.91;4956235;28;19921;-43
2022/03/14 03:16:22;;;;;;;;;;;8.30;99.90;;;7.83;100.00;97655.81;4957526;28;20296;-43
2022/03/14 03:18:47;;;;;;;;;;;8.30;99.90;;;7.76;100.00;97669.97;4959033;28;20426;-48
2022/03/14 03:21:14;;;;;;;;;;;8.20;99.90;;;7.68;100.00;97680.66;4960293;28;19929;-48
2022/03/14 03:23:40;;;;;;;;;;;8.20;99.90;;;7.59;100.00;97679.06;4958186;28;19921;-42
2022/03/14 03:26:06;;;;;;;;;;;8.10;99.90;;;7.55;100.00;97690.50;4954666;28;20182;-44
2022/03/14 03:28:37;;;;;;;;;;;8.10;99.90;;;7.51;100.00;97699.34;4960777;28;19975;-43
2022/03/14 03:31:05;;;;;;;;;;;8.00;99.90;;;7.47;100.00;97710.81;4959889;28;20005;-43
2022/03/14 03:33:30;;;;;;;;;;;8.00;99.90;;;7.40;100.00;97712.69;4958453;28;19960;-41
2022/03/14 03:35:56;;;;;;;;;;;8.00;99.90;;;7.38;100.00;97738.09;4964077;28;19988;-45
2022/03/14 03:38:21;;;;;;;;;;;7.90;99.90;;;7.31;100.00;97746.97;4960351;28;20161;-39
2022/03/14 03:40:47;;;;;;;;;;;7.90;99.90;;;7.25;100.00;97749.72;4957776;28;20402;-44
2022/03/14 03:43:14;;;;;;;;;;;7.80;99.90;;;7.26;100.00;97748.81;4961869;28;19926;-43
2022/03/14 03:45:39;;;;;;;;;;;7.80;99.90;;;7.26;100.00;97752.28;4958368;28;19944;-40
2022/03/14 03:48:05;;;;;;;;;;;7.80;99.90;;;7.21;100.00;97751.53;4959099;28;20367;-44
2022/03/14 03:50:31;;;;;;;;;;;7.70;99.90;;;7.24;100.00;97759.31;4965572;28;19929;-44
2022/03/14 03:52:57;;;;;;;;;;;7.70;99.90;;;7.25;100.00;97763.69;4956710;28;19975;-44
2022/03/14 03:55:22;;;;;;;;;;;7.80;99.90;;;7.22;100.00;97774.22;4958466;28;19918;-41
2022/03/14 03:57:48;;;;;;;;;;;7.70;99.90;;;7.25;100.00;97778.56;4957482;28;19984;-42
2022/03/14 04:00:14;;;;;;;;;;;7.70;99.90;;;7.24;100.00;97780.31;4958881;28;20288;-44
2022/03/14 04:02:42;;;;;;;;;;;7.70;99.90;;;7.23;100.00;97780.34;4959787;28;20984;-43
2022/03/14 04:05:09;;;;;;;;;;;7.80;99.90;;;7.19;100.00;97794.41;4956750;28;20303;-46
2022/03/14 04:07:35;;;;;;;;;;;7.70;99.90;;;7.14;100.00;97793.59;4962765;28;19927;-45
2022/03/14 04:10:02;;;;;;;;;;;7.70;99.90;;;7.15;100.00;97792.72;4961185;28;19976;-45
2022/03/14 04:12:28;;;;;;;;;;;7.70;99.90;;;7.23;100.00;97793.44;4961791;28;19961;-46
2022/03/14 04:14:56;;;;;;;;;;;7.70;99.90;;;7.20;100.00;97799.63;4962631;28;20009;-45
2022/03/14 04:17:25;;;;;;;;;;;7.70;99.90;;;7.16;100.00;97794.44;4959647;28;19977;-48
2022/03/14 04:19:52;;;;;;;;;;;7.70;99.90;;;7.08;100.00;97771.84;4955764;28;19924;-45
2022/03/14 04:22:21;;;;;;;;;;;7.60;99.90;;;7.16;100.00;97792.72;4957258;28;19925;-48
2022/03/14 04:24:47;;;;;;;;;;;7.60;99.90;;;7.11;100.00;97809.44;4959586;28;20059;-44
2022/03/14 04:27:13;;;;;;;;;;;7.60;99.90;;;7.03;100.00;97815.66;4957898;28;20469;-45
2022/03/14 04:29:38;;;;;;;;;;;7.60;99.90;;;6.96;100.00;97828.88;4964381;28;19985;-41
2022/03/14 04:32:04;;;;;;;;;;;7.50;99.90;;;6.94;100.00;97839.38;4962100;28;19929;-47
2022/03/14 04:34:30;;;;;;;;;;;7.50;99.90;;;6.93;100.00;97848.16;4963314;28;20243;-43
2022/03/14 04:36:56;;;;;;;;;;;7.40;99.90;;;6.90;100.00;97849.94;4958109;28;22364;-43
2022/03/14 04:39:21;;;;;;;;;;;7.40;99.90;;;6.86;100.00;97863.09;4960148;28;20012;-45
2022/03/14 04:41:47;;;;;;;;;;;7.40;99.90;;;6.90;100.00;97868.31;4958032;28;19965;-48
2022/03/14 04:44:13;;;;;;;;;;;7.40;99.90;;;6.87;100.00;97869.19;4962123;28;19922;-43
2022/03/14 04:46:39;;;;;;;;;;;7.40;99.90;;;6.91;100.00;97872.66;4959127;28;20031;-42
2022/03/14 04:49:05;;;;;;;;;;;7.40;99.90;;;6.93;100.00;97877.00;4937664;28;20009;-43
2022/03/14 04:51:32;;;;;;;;;;;7.50;99.90;;;6.85;100.00;97858.72;4958823;28;20614;-43
2022/03/14 04:53:57;;;;;;;;;;;7.40;99.90;;;6.87;100.00;97871.81;4961181;28;21398;-47
2022/03/14 04:56:24;;;;;;;;;;;7.40;99.90;;;6.91;100.00;97864.78;4960347;28;19921;-48
2022/03/14 04:58:49;;;;;;;;;;;7.40;99.90;;;6.78;100.00;97853.59;4961333;28;19917;-47
2022/03/14 05:01:15;;;;;;;;;;;7.40;99.90;;;6.90;100.00;97869.16;4959508;28;20100;-45
2022/03/14 05:03:41;;;;;;;;;;;7.40;99.90;;;6.88;100.00;97874.44;4958962;28;19925;-48
2022/03/14 05:06:06;;;;;;;;;;;7.40;99.90;;;6.81;100.00;97879.78;4955888;28;20397;-46
2022/03/14 05:08:32;;;;;;;;;;;7.40;99.90;;;6.81;100.00;97874.56;4939910;28;20280;-48
2022/03/14 05:10:58;;;;;;;;;;;7.30;99.90;;;6.77;100.00;97875.50;4966089;28;20363;-46
2022/03/14 05:13:24;;;;;;;;;;;7.30;99.90;;;6.75;100.00;97885.09;4964979;28;19948;-46
2022/03/14 05:15:49;;;;;;;;;;;7.30;99.90;;;6.76;100.00;97900.81;4966636;28;19922;-44
2022/03/14 05:18:15;;;;;;;;;;;7.30;99.90;;;6.77;100.00;97909.56;4972420;28;20442;-46
2022/03/14 05:20:41;;;;;;;;;;;7.30;99.90;;;6.76;100.00;97913.06;4978829;28;19918;-46
2022/03/14 05:23:07;;;;;;;;;;;7.30;99.90;;;6.72;100.00;97916.63;4973912;28;19984;-45
2022/03/14 05:25:32;;;;;;;;;;;7.30;99.90;;;6.62;100.00;97914.13;4975382;28;20469;-46
2022/03/14 05:27:58;;;;;;;;;;;7.20;99.90;;;6.63;100.00;97935.94;4974202;28;19925;-44
2022/03/14 05:30:24;;;;;;;;;;;7.20;99.90;;;6.64;100.00;97941.19;4974970;28;19936;-46
2022/03/14 05:32:50;;;;;;;;;;;7.10;99.90;;;6.57;100.00;97931.66;4975665;28;20127;-44
2022/03/14 05:35:16;;;;;;;;;;;7.10;99.90;;;6.53;100.00;97931.72;4975120;28;20295;-47
2022/03/14 05:37:42;;;;;;;;;;;7.10;99.90;;;6.45;100.00;97940.53;4976737;28;19948;-43
2022/03/14 05:40:10;;;;;;;;;;;7.00;99.90;;;6.37;100.00;97939.75;4954808;28;20427;-46
2022/03/14 05:42:35;;;;;;;;;;;6.90;99.90;;;6.29;100.00;97942.44;4974151;28;20394;-46
2022/03/14 05:45:01;;;;;;;;;;;6.90;99.90;;;6.25;100.00;97951.22;4976420;28;19925;-45
2022/03/14 05:47:27;;;;;;;;;;;6.80;99.90;;;6.25;100.00;97955.63;4977710;28;19917;-42
2022/03/14 05:49:52;;;;;;;;;;;6.80;99.90;;;6.23;100.00;97965.25;4973811;28;19957;-46
2022/03/14 05:52:21;;;;;;;;;;;6.80;99.90;;;6.22;100.00;97974.84;4973621;28;20022;-46
2022/03/14 05:54:47;;;;;;;;;;;6.80;99.90;;;6.02;100.00;97945.38;4973087;28;20054;-46
2022/03/14 05:57:12;;;;;;;;;;;6.80;99.90;;;6.02;100.00;97961.09;4955420;28;19928;-46
2022/03/14 05:59:38;;;;;;;;;;;6.70;99.90;;;6.20;100.00;97991.47;4975197;28;20182;-44
2022/03/14 06:02:04;;;;;;;;;;;6.80;99.90;;;6.11;100.00;97984.56;4972603;28;19925;-47
2022/03/14 06:04:29;;;;;;;;;;;6.80;99.90;;;6.11;100.00;97987.19;4975754;28;20407;-46
2022/03/14 06:06:56;;;;;;;;;;;6.70;99.90;;;6.20;100.00;98001.94;4971630;28;19928;-44
2022/03/14 06:09:25;;;;;;;;;;;6.80;99.90;;;6.15;100.00;97994.13;4975700;28;20018;-46
2022/03/14 06:11:51;;;;;;;;;;;6.80;99.90;;;6.20;100.00;98005.41;4979758;28;19971;-45
2022/03/14 06:14:17;;;;;;;;;;;6.80;99.90;;;6.20;100.00;97996.69;4973982;28;20437;-47
2022/03/14 06:16:43;;;;;;;;;;;6.80;99.90;;;6.18;100.00;98001.94;4974721;28;19917;-46
2022/03/14 06:19:09;;;;;;;;;;;6.80;99.90;;;6.18;100.00;98003.72;4973194;28;19957;-46
2022/03/14 06:21:35;;;;;;;;;;;6.70;99.90;;;6.14;100.00;98017.69;4971913;28;20044;-46
2022/03/14 06:24:01;;;;;;;;;;;6.70;99.90;;;5.98;100.00;98017.00;4974464;28;19918;-47
2022/03/14 06:26:27;;;;;;;;;;;6.60;99.90;;;5.87;100.00;98022.28;4971920;28;19988;-46
2022/03/14 06:28:53;;;;;;;;;;;6.50;99.90;;;5.79;100.00;98019.72;4974729;28;19922;-39
2022/03/14 06:31:19;;;;;;;;;;;6.40;99.90;;;5.78;100.00;98031.06;4972168;28;19934;-47
2022/03/14 06:33:45;;;;;;;;;;;6.30;99.90;;;5.75;100.00;98025.84;4966573;28;20354;-46
2022/03/14 06:36:11;;;;;;;;;;;6.30;99.90;;;5.74;100.00;98034.56;4969632;28;20024;-43
2022/03/14 06:38:36;;;;;;;;;;;6.30;99.90;;;5.54;100.00;98012.06;4973195;28;20000;-46
2022/03/14 06:41:02;;;;;;;;;;;6.30;99.90;;;5.71;100.00;98047.69;4971252;28;19922;-45
2022/03/14 06:43:31;;;;;;;;;;;6.30;99.90;;;5.69;100.00;98049.47;4954688;28;19948;-45
2022/03/14 06:45:57;;;;;;;;;;;6.30;99.90;;;5.62;100.00;98053.88;4969283;28;19922;-42
2022/03/14 06:48:22;;;;;;;;;;;6.20;99.90;;;5.64;100.00;98059.09;4971329;28;19924;-47
2022/03/14 06:50:48;;;;;;;;;;;6.20;99.90;;;5.57;100.00;98065.25;4972526;28;20008;-45
2022/03/14 06:53:14;;;;;;;;;;;6.10;99.90;;;5.52;100.00;98065.25;4970750;28;19928;-46
2022/03/14 06:55:40;;;;;;;;;;;6.10;99.90;;;5.47;100.00;98067.94;4971756;28;20019;-49
2022/03/14 06:58:05;;;;;;;;;;;6.00;99.90;;;5.37;100.00;98071.47;4973052;28;20517;-46
2022/03/14 07:00:31;;;;;;;;;;;6.00;99.90;;;5.39;100.00;98067.09;4973432;28;20012;-46
2022/03/14 07:02:56;;;;;;;;;;;6.00;99.90;;;5.57;100.00;98070.47;4975248;28;19975;-46
2022/03/14 07:05:24;;;;;;;;;;;6.00;99.90;;;5.46;100.00;98066.16;4973360;28;19987;-43
2022/03/14 07:07:50;;;;;;;;;;;6.10;99.90;;;5.56;100.00;98064.34;4974566;28;20266;-46
2022/03/14 07:10:16;;;;;;;;;;;6.20;99.90;;;5.48;100.00;98053.94;4970901;28;20009;-46
2022/03/14 07:12:45;;;;;;;;;;;6.20;99.90;;;5.63;100.00;98078.28;4974021;28;19914;-47
2022/03/14 07:15:13;;;;;;;;;;;6.20;99.90;;;5.62;100.00;98066.94;4973235;28;19996;-44
2022/03/14 07:17:39;;;;;;;;;;;6.30;99.90;;;5.76;100.00;98079.94;4972477;28;20044;-46
2022/03/14 07:20:05;;;;;;;;;;;6.30;99.90;;;5.77;100.00;98080.81;4972202;28;19922;-46
2022/03/14 07:22:31;;;;;;;;;;;6.40;99.90;;;5.81;100.00;98088.63;4970614;28;19976;-44
2022/03/14 07:24:57;;;;;;;;;;;6.40;99.90;;;5.86;100.00;98088.59;4973462;28;19977;-46
2022/03/14 07:27:23;;;;;;;;;;;6.40;99.90;;;5.87;100.00;98099.06;4970784;28;20363;-47
2022/03/14 07:29:48;;;;;;;;;;;6.50;99.90;;;5.73;100.00;98077.34;4972929;28;19929;-43
2022/03/14 07:32:14;;;;;;;;;;;6.50;99.90;;;5.80;100.00;98084.28;4974729;28;19918;-46
2022/03/14 07:34:40;;;;;;;;;;;6.60;99.90;;;6.02;100.00;98112.97;4970710;28;20037;-46
2022/03/14 07:37:05;;;;;;;;;;;6.60;99.90;;;6.08;100.00;98119.03;4973083;28;19961;-46
2022/03/14 07:39:31;;;;;;;;;;;6.70;99.90;;;6.14;100.00;98117.22;4970079;28;19992;-46
2022/03/14 07:41:57;;;;;;;;;;;6.70;99.90;;;6.22;100.00;98113.66;4974191;28;19972;-45
2022/03/14 07:44:22;;;;;;;;;;;6.90;99.90;;;6.33;100.00;98117.94;4973359;28;19928;-46
2022/03/14 07:46:48;;;;;;;;;;;6.90;99.90;;;6.43;100.00;98117.84;4971715;28;20190;-43
2022/03/14 07:49:14;;;;;;;;;;;7.10;99.90;;;6.56;100.00;98131.72;4949366;28;20314;-45
2022/03/14 07:51:40;;;;;;;;;;;7.20;99.90;;;6.68;100.00;98141.22;4970136;28;20373;-45
2022/03/14 07:54:06;;;;;;;;;;;7.30;99.90;;;6.79;100.00;98144.59;4971658;28;19917;-46
2022/03/14 07:56:32;;;;;;;;;;;7.40;99.90;;;6.99;100.00;98154.03;4970622;28;19917;-45
2022/03/14 07:58:58;;;;;;;;;;;7.60;99.90;;;7.19;100.00;98157.28;4971617;28;19921;-48
2022/03/14 08:01:23;;;;;;;;;;;7.70;99.90;;;7.41;99.44;98159.66;4968539;28;19932;-46
2022/03/14 08:03:49;;;;;;;;;;;8.00;99.90;;;7.65;99.20;98164.59;4972882;28;19953;-43
2022/03/14 08:06:22;;;;;;;;;;;8.30;99.90;;;7.89;96.77;98175.66;4971605;28;20366;-47
2022/03/14 08:08:50;;;;;;;;;;;8.50;99.90;;;8.20;94.50;98170.84;4972978;28;19924;-43
2022/03/14 08:11:17;;;;;;;;;;;8.70;99.90;;;8.32;90.95;98172.41;4973071;28;19929;-46
2022/03/14 08:13:43;;;;;;;;;;;8.90;99.90;;;8.43;90.29;98179.28;4974925;28;19924;-48
2022/03/14 08:16:09;;;;;;;;;;;8.90;99.90;;;8.55;91.04;98189.63;4973653;28;20210;-46
2022/03/14 08:18:34;;;;;;;;;;;9.00;99.90;;;8.52;92.49;98200.19;4980431;28;19933;-42
2022/03/14 08:21:00;;;;;;;;;;;9.10;99.90;;;8.65;86.97;98207.00;4973936;28;20457;-46
2022/03/14 08:23:26;;;;;;;;;;;9.20;99.90;;;8.74;82.97;98213.84;4980494;28;19918;-47
2022/03/14 08:25:53;;;;;;;;;;;9.30;99.90;;;8.74;82.81;98221.72;4980558;28;20208;-46
2022/03/14 08:28:19;;;;;;;;;;;9.40;99.90;;;8.73;81.92;98220.00;4981647;28;19913;-47
2022/03/14 08:30:45;;;;;;;;;;;9.30;99.90;;;8.53;81.62;98218.56;4980060;28;19917;-46
2022/03/14 08:33:10;;;;;;;;;;;9.10;99.90;;;8.50;83.67;98218.59;4984681;28;20473;-47
2022/03/14 08:35:36;;;;;;;;;;;9.00;99.90;;;8.47;85.31;98223.94;4960895;28;20395;-50
2022/03/14 08:38:02;;;;;;;;;;;9.00;99.90;;;8.48;85.76;98220.38;4980259;28;19925;-49
2022/03/14 08:40:28;;;;;;;;;;;9.00;99.90;;;8.40;84.41;98214.38;4980603;28;19960;-47
2022/03/14 08:42:55;;;;;;;;;;;9.00;99.90;;;8.58;85.20;98222.00;4980459;28;19925;-44
2022/03/14 08:45:22;;;;;;;;;;;9.10;99.90;;;8.73;85.55;98220.00;4980960;28;20067;-47
2022/03/14 08:47:48;;;;;;;;;;;9.30;99.90;;;8.86;78.10;98236.44;4979235;28;19922;-47
2022/03/14 08:50:14;;;;;;;;;;;9.40;99.90;;;9.07;80.75;98248.38;4981649;28;20283;-47
2022/03/14 08:52:40;;;;;;;;;;;9.60;99.90;;;9.17;79.71;98249.97;4980937;28;19914;-49
2022/03/14 08:55:07;;;;;;;;;;;9.70;99.90;;;9.15;75.04;98251.72;4981449;28;19929;-46
2022/03/14 08:57:32;;;;;;;;;;;9.70;99.90;;;9.02;76.18;98240.56;4979598;28;19914;-49
2022/03/14 08:59:58;;;;;;;;;;;9.70;99.90;;;9.02;75.48;98248.44;4981514;28;20417;-47
2022/03/14 09:02:23;;;;;;;;;;;9.60;99.90;;;8.97;74.46;98258.19;4981416;28;19957;-47
2022/03/14 09:04:49;;;;;;;;;;;9.60;99.90;;;8.97;74.57;98251.19;4979478;28;19918;-48
2022/03/14 09:07:31;;;;;;;;;;;9.60;99.90;;;9.04;75.77;98257.19;4979092;28;20012;-49
2022/03/14 09:10:05;;;;;;;;;;;9.60;99.90;;;9.00;74.28;98249.38;4979666;28;19925;-47
2022/03/14 09:12:35;;;;;;;;;;;9.60;99.90;;;9.06;72.79;98251.91;4977842;28;19975;-51
2022/03/14 09:15:02;;;;;;;;;;;9.60;99.90;;;9.16;74.56;98254.34;4980303;28;19922;-48
2022/03/14 09:17:28;;;;;;;;;;;9.70;99.90;;;9.20;72.81;98263.03;4963151;28;20306;-49
2022/03/14 09:19:54;;;;;;;;;;;9.80;99.90;;;9.41;72.67;98271.47;4977591;28;20034;-46
2022/03/14 09:22:21;;;;;;;;;;;9.90;99.90;;;9.48;70.06;98267.84;4980333;28;20371;-46
2022/03/14 09:24:48;;;;;;;;;;;9.90;99.90;;;9.50;70.75;98272.16;4981801;28;19918;-44
2022/03/14 09:27:13;;;;;;;;;;;9.90;99.90;;;9.23;70.18;98267.41;4976783;28;19931;-48
2022/03/14 09:29:39;;;;;;;;;;;9.80;99.90;;;9.07;70.58;98269.44;4981633;28;19926;-42
2022/03/14 09:32:06;;;;;;;;;;;9.60;99.90;;;8.97;68.20;98271.31;4981531;28;19988;-47
2022/03/14 09:34:36;;;;;;;;;;;9.50;99.90;;;8.87;69.55;98267.13;4981463;28;19918;-48
2022/03/14 09:37:02;;;;;;;;;;;9.40;99.90;;;8.79;70.61;98265.50;4978101;28;19984;-45
2022/03/14 09:39:27;;;;;;;;;;;9.30;99.90;;;8.78;71.02;98255.00;4980988;28;20286;-49
2022/03/14 09:41:56;;;;;;;;;;;9.30;99.90;;;8.81;72.99;98256.69;4980796;28;19948;-45
2022/03/14 09:44:22;;;;;;;;;;;9.30;99.90;;;8.75;71.07;98258.53;4978759;28;19921;-44
2022/03/14 09:46:48;;;;;;;;;;;9.30;99.90;;;8.84;69.24;98261.91;4983132;28;19918;-47
2022/03/14 09:49:15;;;;;;;;;;;9.30;99.90;;;8.91;67.58;98258.28;4979531;28;19925;-49
2022/03/14 09:51:42;;;;;;;;;;;9.40;99.90;;;9.09;67.05;98270.28;4978485;28;19968;-47
2022/03/14 09:54:09;;;;;;;;;;;9.60;99.90;;;9.33;67.03;98261.06;4980625;28;19932;-47
2022/03/14 09:56:36;;;;;;;;;;;9.70;99.90;;;9.41;64.28;98268.84;4980267;28;20012;-50
2022/03/14 09:59:04;;;;;;;;;;;9.80;99.90;;;9.45;63.63;98267.88;4980964;28;19913;-45
2022/03/14 10:01:30;;;;;;;;;;;9.90;99.90;;;9.57;65.19;98279.97;4979254;28;19967;-46
2022/03/14 10:03:56;;;;;;;;;;;10.00;99.90;;;9.67;65.60;98263.94;4979753;28;20302;-48
2022/03/14 10:06:22;;;;;;;;;;;10.10;99.90;;;9.68;64.79;98284.09;4980695;28;19921;-47
2022/03/14 10:08:47;;;;;;;;;;;10.10;99.90;;;9.63;63.17;98280.69;4977355;28;20025;-49
2022/03/14 10:11:13;;;;;;;;;;;10.10;99.90;;;9.61;62.08;98282.50;4981012;28;19953;-43
2022/03/14 10:13:39;;;;;;;;;;;10.10;99.90;;;9.63;61.66;98293.84;4982964;28;19922;-48
2022/03/14 10:16:05;;;;;;;;;;;10.10;99.90;;;9.68;63.73;98283.25;4981311;28;20138;-48
2022/03/14 10:18:52;;;;;;;;;;;10.10;99.90;;;9.63;60.11;98285.97;4980042;28;20399;-48
2022/03/14 10:21:29;;;;;;;;;;;10.10;99.90;;;9.67;60.61;98289.41;4979988;28;19928;-48
2022/03/14 10:23:59;;;;;;;;;;;10.10;99.90;;;9.74;60.70;98289.28;4981177;28;20189;-47
2022/03/14 10:26:25;;;;;;;;;;;10.20;99.90;;;10.03;59.01;98294.84;4980952;28;20390;-47
2022/03/14 10:28:56;;;;;;;;;;;10.40;99.90;;;10.25;58.58;98288.22;4976998;28;19922;-47
2022/03/14 10:31:31;;;;;;;;;;;10.60;99.90;;;10.42;58.25;98289.66;4977783;28;19975;-49
2022/03/14 10:34:07;;;;;;;;;;;10.80;99.90;;;10.43;57.73;98280.88;4980600;28;20442;-46
2022/03/14 10:36:57;;;;;;;;;;;10.80;99.90;;;10.42;57.48;98277.34;4979994;28;19917;-44
2022/03/14 10:39:27;;;;;;;;;;;10.90;99.90;;;10.47;57.11;98279.88;4978413;28;20295;-46
2022/03/14 10:42:07;;;;;;;;;;;10.90;99.90;;;10.46;56.98;98272.88;4969156;28;19917;-46
2022/03/14 10:44:34;;;;;;;;;;;10.90;99.90;;;10.57;55.88;98277.91;4978028;28;19925;-46
2022/03/14 10:47:02;;;;;;;;;;;11.00;99.90;;;10.76;58.01;98273.06;4977613;28;20415;-48
2022/03/14 10:49:29;;;;;;;;;;;11.20;99.90;;;10.88;54.10;98280.69;4980681;28;19917;-47
2022/03/14 10:52:00;;;;;;;;;;;11.40;99.90;;;11.04;52.62;98276.78;4974516;28;22858;-46
2022/03/14 10:54:27;;;;;;;;;;;11.50;98.70;;;11.16;55.13;98274.72;4979140;28;19948;-46
2022/03/14 10:57:25;;;;;;;;;;;11.70;99.30;;;11.46;52.38;98281.00;4971240;28;19917;-48
2022/03/14 10:59:54;;;;;;;;;;;11.90;98.90;;;11.59;55.20;98282.41;4960695;28;19922;-46
2022/03/14 11:02:23;;;;;;;;;;;12.10;98.50;;;11.62;49.30;98282.31;4977545;28;20456;-43
2022/03/14 11:04:50;;;;;;;;;;;12.20;96.00;;;11.65;49.65;98282.22;4976673;28;20349;-44
2022/03/14 11:07:19;;;;;;;;;;;12.20;95.10;;;11.45;48.53;98276.63;4974465;28;19924;-43
2022/03/14 11:09:52;;;;;;;;;;;12.10;94.20;;;11.55;49.82;98286.03;4977870;28;20194;-47
2022/03/14 11:12:19;;;;;;;;;;;12.10;95.20;;;11.58;48.30;98291.22;4979278;28;20396;-45
2022/03/14 11:14:55;;;;;;;;;;;12.20;94.10;;;11.75;49.12;98292.53;4980742;28;19968;-50
2022/03/14 11:17:24;;;;;;;;;;;12.30;93.70;;;11.90;48.99;98285.97;4982180;28;19913;-49
2022/03/14 11:19:51;;;;;;;;;;;12.50;94.10;;;12.03;49.60;98282.97;4974388;28;20433;-46
2022/03/14 11:22:18;;;;;;;;;;;12.60;94.60;;;12.09;48.37;98281.91;4980109;28;20154;-43
2022/03/14 11:24:49;;;;;;;;;;;12.60;93.20;;;12.02;47.04;98280.34;4956994;28;20626;-43
2022/03/14 11:27:26;;;;;;;;;;;12.60;92.30;;;12.20;45.91;98274.56;4976646;28;19937;-46